Turkey City, Pennsylvania
Current Conditions -  °F | °C
As of 10:55 PM on Tuesday 21 Oct 2014 (Local Time) from KFKL Reporting Station
Overcast Overcast  
Wind Chill: 44°   Ceiling: 500
Heat Index: 46°   Visibility: 10mi
Dew Point: 43°   Wind: 5mph
Humidity: 87%   Direction: 360°N
Pressure: 30.04"   Gusts: NA
Location:  41.19°N, 79.61°W
Report Text: KFKL 220255Z 36004KT 10SM OVC005 08/06 A3004 RMK AO1 52017
Loading
Personal Weather Stations






























Interactive Weather Map
Tropical Storm Tracking
New forecast layout! Learn more

10-Day Weather Forecast

Advertisements
Track Severe Weather on mobile